sensor_id;sensor_type;location;lat;lon;timestamp;P1;durP1;ratioP1;P2;durP2;ratioP2
44452;SDS011;30155;52.164;21.236;2023-06-10T03:22:11;6.80;;;5.00;;
44452;SDS011;30155;52.164;21.236;2023-06-10T03:33:21;5.70;;;4.80;;
44452;SDS011;30155;52.164;21.236;2023-06-10T03:38:25;10.10;;;4.90;;
44452;SDS011;30155;52.164;21.236;2023-06-10T03:49:14;8.00;;;4.90;;
44452;SDS011;30155;52.164;21.236;2023-06-10T03:54:56;5.40;;;4.90;;
44452;SDS011;30155;52.164;21.236;2023-06-10T04:00:58;7.60;;;4.50;;
44452;SDS011;30155;52.164;21.236;2023-06-10T04:13:05;7.30;;;4.60;;
44452;SDS011;30155;52.164;21.236;2023-06-10T04:24:50;6.90;;;5.20;;
44452;SDS011;30155;52.164;21.236;2023-06-10T04:36:59;5.80;;;4.90;;
44452;SDS011;30155;52.164;21.236;2023-06-10T04:42:40;5.90;;;5.00;;
44452;SDS011;30155;52.164;21.236;2023-06-10T04:48:41;4.80;;;4.30;;
44452;SDS011;30155;52.164;21.236;2023-06-10T04:54:35;6.20;;;4.60;;
44452;SDS011;30155;52.164;21.236;2023-06-10T05:00:05;9.00;;;4.80;;
44452;SDS011;30155;52.164;21.236;2023-06-10T05:05:08;8.40;;;4.70;;
44452;SDS011;30155;52.164;21.236;2023-06-10T05:10:43;9.50;;;4.40;;
44452;SDS011;30155;52.164;21.236;2023-06-10T05:16:25;6.20;;;3.80;;
44452;SDS011;30155;52.164;21.236;2023-06-10T05:21:22;5.80;;;4.50;;
44452;SDS011;30155;52.164;21.236;2023-06-10T05:27:16;8.80;;;5.10;;
44452;SDS011;30155;52.164;21.236;2023-06-10T06:13:07;6.50;;;4.70;;
44452;SDS011;30155;52.164;21.236;2023-06-10T07:00:43;7.10;;;4.80;;
44452;SDS011;30155;52.164;21.236;2023-06-10T07:07:18;8.90;;;5.60;;
44452;SDS011;30155;52.164;21.236;2023-06-10T08:00:41;8.50;;;5.80;;
44452;SDS011;30155;52.164;21.236;2023-06-10T08:06:58;8.60;;;5.40;;
44452;SDS011;30155;52.164;21.236;2023-06-10T08:12:33;6.40;;;4.50;;
44452;SDS011;30155;52.164;21.236;2023-06-10T08:18:26;5.30;;;4.80;;
44452;SDS011;30155;52.164;21.236;2023-06-10T08:37:10;6.20;;;4.60;;
44452;SDS011;30155;52.164;21.236;2023-06-10T08:42:14;7.70;;;4.80;;
44452;SDS011;30155;52.164;21.236;2023-06-10T08:47:35;4.20;;;3.80;;
44452;SDS011;30155;52.164;21.236;2023-06-10T08:52:44;7.50;;;4.80;;
44452;SDS011;30155;52.164;21.236;2023-06-10T08:57:45;5.60;;;4.50;;
44452;SDS011;30155;52.164;21.236;2023-06-10T09:02:44;4.80;;;4.30;;
44452;SDS011;30155;52.164;21.236;2023-06-10T09:07:39;5.80;;;4.60;;
44452;SDS011;30155;52.164;21.236;2023-06-10T09:12:45;5.00;;;4.50;;
44452;SDS011;30155;52.164;21.236;2023-06-10T09:17:48;6.80;;;4.80;;
44452;SDS011;30155;52.164;21.236;2023-06-10T09:22:48;7.40;;;4.20;;
44452;SDS011;30155;52.164;21.236;2023-06-10T09:32:44;6.20;;;4.50;;
44452;SDS011;30155;52.164;21.236;2023-06-10T09:37:40;4.30;;;4.00;;
44452;SDS011;30155;52.164;21.236;2023-06-10T09:43:02;6.20;;;5.30;;
44452;SDS011;30155;52.164;21.236;2023-06-10T09:48:06;5.50;;;4.20;;
44452;SDS011;30155;52.164;21.236;2023-06-10T09:53:20;6.40;;;4.10;;
44452;SDS011;30155;52.164;21.236;2023-06-10T09:58:12;4.90;;;4.00;;
44452;SDS011;30155;52.164;21.236;2023-06-10T10:03:09;7.60;;;4.80;;
44452;SDS011;30155;52.164;21.236;2023-06-10T10:08:24;5.60;;;4.50;;
44452;SDS011;30155;52.164;21.236;2023-06-10T10:13:29;24.30;;;6.00;;
44452;SDS011;30155;52.164;21.236;2023-06-10T10:18:26;5.70;;;4.90;;
44452;SDS011;30155;52.164;21.236;2023-06-10T10:28:16;6.90;;;4.60;;
44452;SDS011;30155;52.164;21.236;2023-06-10T10:33:19;6.90;;;4.80;;
44452;SDS011;30155;52.164;21.236;2023-06-10T10:38:14;5.90;;;4.40;;
44452;SDS011;30155;52.164;21.236;2023-06-10T10:43:06;7.90;;;4.80;;
44452;SDS011;30155;52.164;21.236;2023-06-10T10:48:03;5.30;;;4.70;;
44452;SDS011;30155;52.164;21.236;2023-06-10T10:53:00;5.10;;;4.70;;
44452;SDS011;30155;52.164;21.236;2023-06-10T10:57:59;7.50;;;5.00;;
44452;SDS011;30155;52.164;21.236;2023-06-10T11:08:02;7.60;;;5.20;;
44452;SDS011;30155;52.164;21.236;2023-06-10T11:12:54;5.50;;;5.00;;
44452;SDS011;30155;52.164;21.236;2023-06-10T11:23:02;7.20;;;5.90;;
44452;SDS011;30155;52.164;21.236;2023-06-10T11:27:55;6.10;;;5.30;;
44452;SDS011;30155;52.164;21.236;2023-06-10T11:32:50;7.30;;;5.50;;
44452;SDS011;30155;52.164;21.236;2023-06-10T11:37:49;6.60;;;5.50;;
44452;SDS011;30155;52.164;21.236;2023-06-10T11:42:42;6.80;;;5.80;;
44452;SDS011;30155;52.164;21.236;2023-06-10T11:47:39;7.20;;;5.50;;
44452;SDS011;30155;52.164;21.236;2023-06-10T11:52:31;6.20;;;5.70;;
44452;SDS011;30155;52.164;21.236;2023-06-10T11:57:28;6.20;;;5.70;;
44452;SDS011;30155;52.164;21.236;2023-06-10T12:02:22;9.10;;;5.80;;
44452;SDS011;30155;52.164;21.236;2023-06-10T12:07:19;5.90;;;5.40;;
44452;SDS011;30155;52.164;21.236;2023-06-10T12:12:23;6.20;;;5.60;;
44452;SDS011;30155;52.164;21.236;2023-06-10T12:17:45;6.60;;;5.90;;
44452;SDS011;30155;52.164;21.236;2023-06-10T12:23:24;11.00;;;7.00;;
44452;SDS011;30155;52.164;21.236;2023-06-10T12:28:16;8.90;;;5.90;;
44452;SDS011;30155;52.164;21.236;2023-06-10T12:33:17;10.60;;;7.10;;
44452;SDS011;30155;52.164;21.236;2023-06-10T12:38:46;7.30;;;6.10;;
44452;SDS011;30155;52.164;21.236;2023-06-10T12:49:51;6.50;;;5.80;;
44452;SDS011;30155;52.164;21.236;2023-06-10T12:55:15;7.10;;;6.40;;
44452;SDS011;30155;52.164;21.236;2023-06-10T13:00:12;6.40;;;5.70;;
44452;SDS011;30155;52.164;21.236;2023-06-10T13:05:20;6.70;;;5.70;;
44452;SDS011;30155;52.164;21.236;2023-06-10T13:10:49;11.00;;;5.60;;
44452;SDS011;30155;52.164;21.236;2023-06-10T19:04:10;7.50;;;5.30;;
44452;SDS011;30155;52.164;21.236;2023-06-10T19:09:18;7.00;;;6.30;;
44452;SDS011;30155;52.164;21.236;2023-06-10T19:14:15;8.40;;;7.20;;
44452;SDS011;30155;52.164;21.236;2023-06-10T19:19:14;9.10;;;8.20;;
44452;SDS011;30155;52.164;21.236;2023-06-10T19:24:14;10.00;;;7.40;;
44452;SDS011;30155;52.164;21.236;2023-06-10T19:29:20;8.20;;;7.00;;
44452;SDS011;30155;52.164;21.236;2023-06-10T19:34:19;6.90;;;6.30;;
44452;SDS011;30155;52.164;21.236;2023-06-10T19:39:27;8.40;;;6.60;;
44452;SDS011;30155;52.164;21.236;2023-06-10T19:44:27;7.80;;;7.00;;
44452;SDS011;30155;52.164;21.236;2023-06-10T19:49:28;7.70;;;7.10;;
44452;SDS011;30155;52.164;21.236;2023-06-10T19:54:39;8.50;;;7.70;;
44452;SDS011;30155;52.164;21.236;2023-06-10T19:59:43;8.80;;;8.00;;
44452;SDS011;30155;52.164;21.236;2023-06-10T20:04:45;9.00;;;7.00;;
44452;SDS011;30155;52.164;21.236;2023-06-10T20:09:49;9.00;;;7.90;;
44452;SDS011;30155;52.164;21.236;2023-06-10T20:15:05;7.70;;;7.00;;
44452;SDS011;30155;52.164;21.236;2023-06-10T20:20:11;10.40;;;7.20;;
44452;SDS011;30155;52.164;21.236;2023-06-10T20:30:07;10.00;;;8.70;;
44452;SDS011;30155;52.164;21.236;2023-06-10T20:35:15;9.90;;;8.90;;
44452;SDS011;30155;52.164;21.236;2023-06-10T20:40:20;10.90;;;9.90;;
44452;SDS011;30155;52.164;21.236;2023-06-10T22:07:34;12.40;;;11.00;;
44452;SDS011;30155;52.164;21.236;2023-06-10T22:14:01;12.50;;;10.70;;
44452;SDS011;30155;52.164;21.236;2023-06-10T22:34:20;11.00;;;9.90;;
44452;SDS011;30155;52.164;21.236;2023-06-10T22:40:05;11.20;;;10.10;;
44452;SDS011;30155;52.164;21.236;2023-06-10T22:46:20;13.40;;;9.60;;
44452;SDS011;30155;52.164;21.236;2023-06-10T22:58:38;11.50;;;10.00;;
44452;SDS011;30155;52.164;21.236;2023-06-10T23:10:45;11.80;;;9.40;;
44452;SDS011;30155;52.164;21.236;2023-06-10T23:16:12;10.40;;;8.80;;
44452;SDS011;30155;52.164;21.236;2023-06-10T23:21:39;15.00;;;8.80;;
44452;SDS011;30155;52.164;21.236;2023-06-10T23:26:52;11.30;;;8.80;;
44452;SDS011;30155;52.164;21.236;2023-06-10T23:32:06;10.30;;;8.70;;
44452;SDS011;30155;52.164;21.236;2023-06-10T23:37:14;11.70;;;9.90;;
44452;SDS011;30155;52.164;21.236;2023-06-10T23:42:17;9.40;;;8.30;;
44452;SDS011;30155;52.164;21.236;2023-06-10T23:47:25;8.40;;;7.70;;
44452;SDS011;30155;52.164;21.236;2023-06-10T23:52:26;9.00;;;8.20;;
44452;SDS011;30155;52.164;21.236;2023-06-10T23:57:18;10.80;;;7.10;;
